sensor_id;sensor_type;location;lat;lon;timestamp;P1;durP1;ratioP1;P2;durP2;ratioP2
1679;SDS011;838;51.794;12.258;2024-01-15T00:00:28;12.00;;;7.50;;
1679;SDS011;838;51.794;12.258;2024-01-15T00:02:54;9.60;;;6.63;;
1679;SDS011;838;51.794;12.258;2024-01-15T00:05:19;12.43;;;7.93;;
1679;SDS011;838;51.794;12.258;2024-01-15T00:07:45;11.83;;;7.40;;
1679;SDS011;838;51.794;12.258;2024-01-15T00:10:11;12.27;;;6.17;;
1679;SDS011;838;51.794;12.258;2024-01-15T00:12:36;9.67;;;6.70;;
1679;SDS011;838;51.794;12.258;2024-01-15T00:15:02;11.43;;;6.80;;
1679;SDS011;838;51.794;12.258;2024-01-15T00:17:28;13.07;;;7.30;;
1679;SDS011;838;51.794;12.258;2024-01-15T00:19:54;11.63;;;7.73;;
1679;SDS011;838;51.794;12.258;2024-01-15T00:22:20;11.77;;;7.97;;
1679;SDS011;838;51.794;12.258;2024-01-15T00:24:45;9.50;;;6.97;;
1679;SDS011;838;51.794;12.258;2024-01-15T00:27:11;9.47;;;6.90;;
1679;SDS011;838;51.794;12.258;2024-01-15T00:29:37;11.53;;;7.77;;
1679;SDS011;838;51.794;12.258;2024-01-15T00:32:02;13.60;;;6.97;;
1679;SDS011;838;51.794;12.258;2024-01-15T00:34:28;11.93;;;7.83;;
1679;SDS011;838;51.794;12.258;2024-01-15T00:36:54;11.30;;;6.77;;
1679;SDS011;838;51.794;12.258;2024-01-15T00:39:19;11.10;;;6.90;;
1679;SDS011;838;51.794;12.258;2024-01-15T00:41:45;9.77;;;6.40;;
1679;SDS011;838;51.794;12.258;2024-01-15T00:44:11;13.03;;;8.43;;
1679;SDS011;838;51.794;12.258;2024-01-15T00:46:43;14.70;;;8.30;;
1679;SDS011;838;51.794;12.258;2024-01-15T00:49:14;11.27;;;7.93;;
1679;SDS011;838;51.794;12.258;2024-01-15T00:51:40;16.67;;;8.73;;
1679;SDS011;838;51.794;12.258;2024-01-15T00:54:06;13.03;;;7.80;;
1679;SDS011;838;51.794;12.258;2024-01-15T00:56:32;14.50;;;8.10;;
1679;SDS011;838;51.794;12.258;2024-01-15T00:58:58;14.93;;;8.37;;
1679;SDS011;838;51.794;12.258;2024-01-15T01:01:24;13.73;;;8.80;;
1679;SDS011;838;51.794;12.258;2024-01-15T01:03:50;12.27;;;8.37;;
1679;SDS011;838;51.794;12.258;2024-01-15T01:06:16;13.73;;;7.57;;
1679;SDS011;838;51.794;12.258;2024-01-15T01:08:41;9.90;;;6.97;;
1679;SDS011;838;51.794;12.258;2024-01-15T01:11:07;13.57;;;7.90;;
1679;SDS011;838;51.794;12.258;2024-01-15T01:13:33;12.90;;;7.70;;
1679;SDS011;838;51.794;12.258;2024-01-15T01:15:58;12.40;;;8.67;;
1679;SDS011;838;51.794;12.258;2024-01-15T01:18:24;14.20;;;7.93;;
1679;SDS011;838;51.794;12.258;2024-01-15T01:20:50;12.83;;;8.67;;
1679;SDS011;838;51.794;12.258;2024-01-15T01:23:16;14.50;;;8.53;;
1679;SDS011;838;51.794;12.258;2024-01-15T01:25:41;14.07;;;9.10;;
1679;SDS011;838;51.794;12.258;2024-01-15T01:28:07;12.00;;;6.47;;
1679;SDS011;838;51.794;12.258;2024-01-15T01:30:33;11.73;;;6.97;;
1679;SDS011;838;51.794;12.258;2024-01-15T01:32:58;11.97;;;7.87;;
1679;SDS011;838;51.794;12.258;2024-01-15T01:35:24;11.97;;;7.90;;
1679;SDS011;838;51.794;12.258;2024-01-15T01:37:50;13.93;;;7.07;;
1679;SDS011;838;51.794;12.258;2024-01-15T01:40:15;15.00;;;8.00;;
1679;SDS011;838;51.794;12.258;2024-01-15T01:42:41;10.40;;;7.57;;
1679;SDS011;838;51.794;12.258;2024-01-15T01:45:07;11.77;;;7.70;;
1679;SDS011;838;51.794;12.258;2024-01-15T01:47:33;12.53;;;7.27;;
1679;SDS011;838;51.794;12.258;2024-01-15T01:49:59;13.23;;;8.07;;
1679;SDS011;838;51.794;12.258;2024-01-15T01:52:26;10.17;;;6.27;;
1679;SDS011;838;51.794;12.258;2024-01-15T01:54:52;16.17;;;8.97;;
1679;SDS011;838;51.794;12.258;2024-01-15T01:57:18;15.20;;;8.37;;
1679;SDS011;838;51.794;12.258;2024-01-15T01:59:44;12.03;;;7.53;;
1679;SDS011;838;51.794;12.258;2024-01-15T02:02:11;12.83;;;8.00;;
1679;SDS011;838;51.794;12.258;2024-01-15T02:04:37;14.63;;;8.37;;
1679;SDS011;838;51.794;12.258;2024-01-15T02:07:03;15.50;;;9.30;;
1679;SDS011;838;51.794;12.258;2024-01-15T02:09:29;16.37;;;9.17;;
1679;SDS011;838;51.794;12.258;2024-01-15T02:11:57;17.23;;;10.13;;
1679;SDS011;838;51.794;12.258;2024-01-15T02:14:23;11.93;;;8.63;;
1679;SDS011;838;51.794;12.258;2024-01-15T02:16:48;13.50;;;8.30;;
1679;SDS011;838;51.794;12.258;2024-01-15T02:19:15;15.90;;;9.50;;
1679;SDS011;838;51.794;12.258;2024-01-15T02:21:42;18.47;;;8.60;;
1679;SDS011;838;51.794;12.258;2024-01-15T02:24:07;15.37;;;9.87;;
1679;SDS011;838;51.794;12.258;2024-01-15T02:26:33;16.20;;;9.33;;
1679;SDS011;838;51.794;12.258;2024-01-15T02:29:01;14.30;;;9.20;;
1679;SDS011;838;51.794;12.258;2024-01-15T02:31:27;14.50;;;8.20;;
1679;SDS011;838;51.794;12.258;2024-01-15T02:33:53;14.53;;;10.07;;
1679;SDS011;838;51.794;12.258;2024-01-15T02:36:18;15.23;;;9.90;;
1679;SDS011;838;51.794;12.258;2024-01-15T02:38:44;14.83;;;9.80;;
1679;SDS011;838;51.794;12.258;2024-01-15T02:41:10;14.00;;;9.10;;
1679;SDS011;838;51.794;12.258;2024-01-15T02:43:35;20.80;;;10.60;;
1679;SDS011;838;51.794;12.258;2024-01-15T02:46:01;15.63;;;9.00;;
1679;SDS011;838;51.794;12.258;2024-01-15T02:48:27;20.13;;;10.57;;
1679;SDS011;838;51.794;12.258;2024-01-15T02:50:52;21.27;;;10.50;;
1679;SDS011;838;51.794;12.258;2024-01-15T02:53:18;17.37;;;9.83;;
1679;SDS011;838;51.794;12.258;2024-01-15T02:55:44;21.17;;;10.47;;
1679;SDS011;838;51.794;12.258;2024-01-15T02:58:09;15.63;;;9.63;;
1679;SDS011;838;51.794;12.258;2024-01-15T03:00:35;18.00;;;10.10;;
1679;SDS011;838;51.794;12.258;2024-01-15T03:03:01;19.10;;;11.83;;
1679;SDS011;838;51.794;12.258;2024-01-15T03:05:26;17.33;;;9.53;;
1679;SDS011;838;51.794;12.258;2024-01-15T03:07:52;19.83;;;10.33;;
1679;SDS011;838;51.794;12.258;2024-01-15T03:10:18;15.70;;;9.07;;
1679;SDS011;838;51.794;12.258;2024-01-15T03:12:43;17.33;;;10.10;;
1679;SDS011;838;51.794;12.258;2024-01-15T03:15:09;18.40;;;11.07;;
1679;SDS011;838;51.794;12.258;2024-01-15T03:17:35;17.47;;;9.27;;
1679;SDS011;838;51.794;12.258;2024-01-15T03:20:01;15.27;;;9.27;;
1679;SDS011;838;51.794;12.258;2024-01-15T03:22:28;17.77;;;9.37;;
1679;SDS011;838;51.794;12.258;2024-01-15T03:24:53;21.37;;;9.83;;
1679;SDS011;838;51.794;12.258;2024-01-15T03:27:19;17.07;;;9.30;;
1679;SDS011;838;51.794;12.258;2024-01-15T03:29:45;22.60;;;9.43;;
1679;SDS011;838;51.794;12.258;2024-01-15T03:32:10;17.07;;;10.53;;
1679;SDS011;838;51.794;12.258;2024-01-15T03:34:36;16.10;;;8.40;;
1679;SDS011;838;51.794;12.258;2024-01-15T03:37:02;14.33;;;8.03;;
1679;SDS011;838;51.794;12.258;2024-01-15T03:39:28;14.47;;;8.40;;
1679;SDS011;838;51.794;12.258;2024-01-15T03:41:54;16.87;;;8.90;;
1679;SDS011;838;51.794;12.258;2024-01-15T03:44:20;16.53;;;8.77;;
1679;SDS011;838;51.794;12.258;2024-01-15T03:46:46;14.20;;;8.93;;
1679;SDS011;838;51.794;12.258;2024-01-15T03:49:12;14.70;;;8.20;;
1679;SDS011;838;51.794;12.258;2024-01-15T03:51:37;14.60;;;8.80;;
1679;SDS011;838;51.794;12.258;2024-01-15T03:54:03;20.07;;;9.60;;
1679;SDS011;838;51.794;12.258;2024-01-15T03:56:29;19.40;;;9.57;;
1679;SDS011;838;51.794;12.258;2024-01-15T03:58:54;16.57;;;9.07;;
1679;SDS011;838;51.794;12.258;2024-01-15T04:01:20;16.23;;;8.77;;
1679;SDS011;838;51.794;12.258;2024-01-15T04:03:46;15.40;;;8.60;;
1679;SDS011;838;51.794;12.258;2024-01-15T04:06:11;14.80;;;8.80;;
1679;SDS011;838;51.794;12.258;2024-01-15T04:08:37;16.07;;;8.33;;
1679;SDS011;838;51.794;12.258;2024-01-15T04:11:03;12.47;;;8.43;;
1679;SDS011;838;51.794;12.258;2024-01-15T04:13:31;15.17;;;8.83;;
1679;SDS011;838;51.794;12.258;2024-01-15T04:15:58;15.10;;;8.50;;
1679;SDS011;838;51.794;12.258;2024-01-15T04:18:25;16.33;;;8.97;;
1679;SDS011;838;51.794;12.258;2024-01-15T04:20:51;16.93;;;8.30;;
1679;SDS011;838;51.794;12.258;2024-01-15T04:23:16;13.47;;;7.97;;
1679;SDS011;838;51.794;12.258;2024-01-15T04:25:42;15.47;;;9.23;;
1679;SDS011;838;51.794;12.258;2024-01-15T04:28:08;12.47;;;8.30;;
1679;SDS011;838;51.794;12.258;2024-01-15T04:30:34;16.60;;;8.37;;
1679;SDS011;838;51.794;12.258;2024-01-15T04:33:00;18.17;;;8.83;;
1679;SDS011;838;51.794;12.258;2024-01-15T04:35:26;15.30;;;8.97;;
1679;SDS011;838;51.794;12.258;2024-01-15T04:37:52;14.00;;;8.47;;
1679;SDS011;838;51.794;12.258;2024-01-15T04:40:17;16.47;;;8.47;;
1679;SDS011;838;51.794;12.258;2024-01-15T04:42:43;14.07;;;7.97;;
1679;SDS011;838;51.794;12.258;2024-01-15T04:45:11;14.00;;;7.53;;
1679;SDS011;838;51.794;12.258;2024-01-15T04:47:37;13.67;;;8.17;;
1679;SDS011;838;51.794;12.258;2024-01-15T04:50:03;14.90;;;7.83;;
1679;SDS011;838;51.794;12.258;2024-01-15T04:52:29;10.07;;;6.17;;
1679;SDS011;838;51.794;12.258;2024-01-15T04:54:55;10.40;;;7.17;;
1679;SDS011;838;51.794;12.258;2024-01-15T04:57:21;12.47;;;7.13;;
1679;SDS011;838;51.794;12.258;2024-01-15T04:59:46;9.37;;;6.27;;
1679;SDS011;838;51.794;12.258;2024-01-15T05:02:12;9.53;;;6.00;;
1679;SDS011;838;51.794;12.258;2024-01-15T05:04:38;14.97;;;6.90;;
1679;SDS011;838;51.794;12.258;2024-01-15T05:07:04;11.43;;;6.53;;
1679;SDS011;838;51.794;12.258;2024-01-15T05:09:30;12.17;;;6.83;;
1679;SDS011;838;51.794;12.258;2024-01-15T05:11:56;12.63;;;7.67;;
1679;SDS011;838;51.794;12.258;2024-01-15T05:14:21;13.17;;;6.40;;
1679;SDS011;838;51.794;12.258;2024-01-15T05:16:47;10.87;;;5.97;;
1679;SDS011;838;51.794;12.258;2024-01-15T05:19:14;11.40;;;6.80;;
1679;SDS011;838;51.794;12.258;2024-01-15T05:21:40;9.10;;;5.60;;
1679;SDS011;838;51.794;12.258;2024-01-15T05:24:05;11.27;;;6.97;;
1679;SDS011;838;51.794;12.258;2024-01-15T05:26:32;17.97;;;6.93;;
1679;SDS011;838;51.794;12.258;2024-01-15T05:28:58;14.30;;;7.50;;
1679;SDS011;838;51.794;12.258;2024-01-15T05:31:23;13.50;;;6.77;;
1679;SDS011;838;51.794;12.258;2024-01-15T05:33:49;10.77;;;5.23;;
1679;SDS011;838;51.794;12.258;2024-01-15T05:36:15;11.00;;;6.23;;
1679;SDS011;838;51.794;12.258;2024-01-15T05:38:40;9.67;;;5.80;;
1679;SDS011;838;51.794;12.258;2024-01-15T05:41:06;11.07;;;5.67;;
1679;SDS011;838;51.794;12.258;2024-01-15T05:43:32;9.20;;;5.80;;
1679;SDS011;838;51.794;12.258;2024-01-15T05:45:57;9.70;;;5.30;;
1679;SDS011;838;51.794;12.258;2024-01-15T05:48:23;9.50;;;5.97;;
1679;SDS011;838;51.794;12.258;2024-01-15T05:50:49;10.60;;;6.00;;
1679;SDS011;838;51.794;12.258;2024-01-15T05:53:15;9.47;;;5.20;;
1679;SDS011;838;51.794;12.258;2024-01-15T05:55:40;7.80;;;4.40;;
1679;SDS011;838;51.794;12.258;2024-01-15T05:58:06;12.63;;;5.33;;
1679;SDS011;838;51.794;12.258;2024-01-15T06:00:32;10.10;;;4.60;;
1679;SDS011;838;51.794;12.258;2024-01-15T06:03:01;9.27;;;4.40;;
1679;SDS011;838;51.794;12.258;2024-01-15T06:05:27;6.07;;;4.33;;
1679;SDS011;838;51.794;12.258;2024-01-15T06:07:52;6.27;;;3.50;;
1679;SDS011;838;51.794;12.258;2024-01-15T06:10:18;8.17;;;3.53;;
1679;SDS011;838;51.794;12.258;2024-01-15T06:12:44;6.40;;;3.40;;
1679;SDS011;838;51.794;12.258;2024-01-15T06:15:10;6.30;;;4.07;;
1679;SDS011;838;51.794;12.258;2024-01-15T06:17:36;5.40;;;3.00;;
1679;SDS011;838;51.794;12.258;2024-01-15T06:20:03;6.03;;;3.90;;
1679;SDS011;838;51.794;12.258;2024-01-15T06:22:29;7.13;;;3.10;;
1679;SDS011;838;51.794;12.258;2024-01-15T06:24:55;6.20;;;3.57;;
1679;SDS011;838;51.794;12.258;2024-01-15T06:27:21;5.60;;;3.40;;
1679;SDS011;838;51.794;12.258;2024-01-15T06:29:50;9.97;;;3.67;;
1679;SDS011;838;51.794;12.258;2024-01-15T06:32:15;7.83;;;3.80;;
1679;SDS011;838;51.794;12.258;2024-01-15T06:34:41;9.97;;;4.13;;
1679;SDS011;838;51.794;12.258;2024-01-15T06:37:07;5.77;;;3.60;;
1679;SDS011;838;51.794;12.258;2024-01-15T06:39:32;7.27;;;3.50;;
1679;SDS011;838;51.794;12.258;2024-01-15T06:41:58;7.00;;;3.53;;
1679;SDS011;838;51.794;12.258;2024-01-15T06:44:24;5.13;;;3.07;;
1679;SDS011;838;51.794;12.258;2024-01-15T06:46:49;8.50;;;3.70;;
1679;SDS011;838;51.794;12.258;2024-01-15T06:49:16;5.90;;;3.10;;
1679;SDS011;838;51.794;12.258;2024-01-15T06:51:42;6.50;;;3.10;;
1679;SDS011;838;51.794;12.258;2024-01-15T06:54:08;7.93;;;4.47;;
1679;SDS011;838;51.794;12.258;2024-01-15T06:56:33;5.63;;;3.20;;
1679;SDS011;838;51.794;12.258;2024-01-15T06:58:59;8.70;;;3.40;;
1679;SDS011;838;51.794;12.258;2024-01-15T07:01:25;8.17;;;3.63;;
1679;SDS011;838;51.794;12.258;2024-01-15T07:03:51;6.20;;;3.57;;
1679;SDS011;838;51.794;12.258;2024-01-15T07:06:16;5.93;;;3.53;;
1679;SDS011;838;51.794;12.258;2024-01-15T07:08:42;6.20;;;3.70;;
1679;SDS011;838;51.794;12.258;2024-01-15T07:11:08;7.90;;;4.30;;
1679;SDS011;838;51.794;12.258;2024-01-15T07:13:34;7.40;;;3.97;;
1679;SDS011;838;51.794;12.258;2024-01-15T07:16:01;6.63;;;3.83;;
1679;SDS011;838;51.794;12.258;2024-01-15T07:18:27;6.60;;;4.03;;
1679;SDS011;838;51.794;12.258;2024-01-15T07:20:53;6.37;;;4.63;;
1679;SDS011;838;51.794;12.258;2024-01-15T07:23:19;8.53;;;4.20;;
1679;SDS011;838;51.794;12.258;2024-01-15T07:25:45;7.50;;;3.70;;
1679;SDS011;838;51.794;12.258;2024-01-15T07:28:10;6.10;;;4.27;;
1679;SDS011;838;51.794;12.258;2024-01-15T07:30:36;8.10;;;3.50;;
1679;SDS011;838;51.794;12.258;2024-01-15T07:33:04;7.70;;;4.73;;
1679;SDS011;838;51.794;12.258;2024-01-15T07:35:30;8.20;;;4.30;;
1679;SDS011;838;51.794;12.258;2024-01-15T07:37:56;8.77;;;4.30;;
1679;SDS011;838;51.794;12.258;2024-01-15T07:40:21;6.50;;;4.03;;
1679;SDS011;838;51.794;12.258;2024-01-15T07:42:47;6.13;;;4.10;;
1679;SDS011;838;51.794;12.258;2024-01-15T07:45:13;13.30;;;4.27;;
1679;SDS011;838;51.794;12.258;2024-01-15T07:47:38;7.73;;;3.60;;
1679;SDS011;838;51.794;12.258;2024-01-15T07:50:04;7.20;;;3.60;;
1679;SDS011;838;51.794;12.258;2024-01-15T07:52:30;6.43;;;4.00;;
1679;SDS011;838;51.794;12.258;2024-01-15T07:54:56;6.67;;;3.70;;
1679;SDS011;838;51.794;12.258;2024-01-15T07:57:24;8.23;;;3.83;;
1679;SDS011;838;51.794;12.258;2024-01-15T07:59:50;7.70;;;3.90;;
1679;SDS011;838;51.794;12.258;2024-01-15T08:02:16;6.20;;;3.53;;
1679;SDS011;838;51.794;12.258;2024-01-15T08:04:42;5.70;;;3.53;;
1679;SDS011;838;51.794;12.258;2024-01-15T08:07:08;6.27;;;4.03;;
1679;SDS011;838;51.794;12.258;2024-01-15T08:09:34;5.63;;;3.70;;
1679;SDS011;838;51.794;12.258;2024-01-15T08:11:59;7.73;;;3.77;;
1679;SDS011;838;51.794;12.258;2024-01-15T08:14:25;6.33;;;3.80;;
1679;SDS011;838;51.794;12.258;2024-01-15T08:16:51;6.27;;;3.73;;
1679;SDS011;838;51.794;12.258;2024-01-15T08:19:17;13.20;;;4.73;;
1679;SDS011;838;51.794;12.258;2024-01-15T08:21:43;7.97;;;4.10;;
1679;SDS011;838;51.794;12.258;2024-01-15T08:24:09;8.03;;;4.10;;
1679;SDS011;838;51.794;12.258;2024-01-15T08:26:34;7.20;;;3.70;;
1679;SDS011;838;51.794;12.258;2024-01-15T08:29:00;6.43;;;3.20;;
1679;SDS011;838;51.794;12.258;2024-01-15T08:31:26;7.60;;;3.90;;
1679;SDS011;838;51.794;12.258;2024-01-15T08:33:52;6.47;;;3.70;;
1679;SDS011;838;51.794;12.258;2024-01-15T08:36:18;10.17;;;3.93;;
1679;SDS011;838;51.794;12.258;2024-01-15T08:38:44;6.47;;;3.73;;
1679;SDS011;838;51.794;12.258;2024-01-15T08:41:10;5.77;;;3.50;;
1679;SDS011;838;51.794;12.258;2024-01-15T08:43:35;6.43;;;4.03;;
1679;SDS011;838;51.794;12.258;2024-01-15T08:46:02;6.97;;;3.80;;
1679;SDS011;838;51.794;12.258;2024-01-15T08:48:27;5.90;;;3.17;;
1679;SDS011;838;51.794;12.258;2024-01-15T08:50:56;10.60;;;4.10;;
1679;SDS011;838;51.794;12.258;2024-01-15T08:53:22;7.17;;;3.20;;
1679;SDS011;838;51.794;12.258;2024-01-15T08:55:48;7.20;;;3.77;;
1679;SDS011;838;51.794;12.258;2024-01-15T08:58:14;6.53;;;3.00;;
1679;SDS011;838;51.794;12.258;2024-01-15T09:00:40;19.03;;;9.67;;
1679;SDS011;838;51.794;12.258;2024-01-15T09:03:06;24.60;;;14.10;;
1679;SDS011;838;51.794;12.258;2024-01-15T09:05:33;10.10;;;5.97;;
1679;SDS011;838;51.794;12.258;2024-01-15T09:07:59;6.20;;;4.10;;
1679;SDS011;838;51.794;12.258;2024-01-15T09:10:25;8.70;;;3.90;;
1679;SDS011;838;51.794;12.258;2024-01-15T09:12:51;7.60;;;4.13;;
1679;SDS011;838;51.794;12.258;2024-01-15T09:15:16;5.67;;;2.97;;
1679;SDS011;838;51.794;12.258;2024-01-15T09:17:42;7.60;;;3.30;;
1679;SDS011;838;51.794;12.258;2024-01-15T09:20:08;5.77;;;3.90;;
1679;SDS011;838;51.794;12.258;2024-01-15T09:22:35;6.80;;;3.10;;
1679;SDS011;838;51.794;12.258;2024-01-15T09:25:04;5.57;;;3.17;;
1679;SDS011;838;51.794;12.258;2024-01-15T09:27:29;7.63;;;3.87;;
1679;SDS011;838;51.794;12.258;2024-01-15T09:29:55;6.70;;;3.43;;
1679;SDS011;838;51.794;12.258;2024-01-15T09:32:21;6.00;;;3.67;;
1679;SDS011;838;51.794;12.258;2024-01-15T09:34:47;6.47;;;3.00;;
1679;SDS011;838;51.794;12.258;2024-01-15T09:37:13;6.60;;;3.37;;
1679;SDS011;838;51.794;12.258;2024-01-15T09:39:40;5.30;;;2.97;;
1679;SDS011;838;51.794;12.258;2024-01-15T09:42:06;6.23;;;3.30;;
1679;SDS011;838;51.794;12.258;2024-01-15T09:44:32;6.23;;;3.13;;
1679;SDS011;838;51.794;12.258;2024-01-15T09:46:58;4.70;;;2.90;;
1679;SDS011;838;51.794;12.258;2024-01-15T09:49:24;4.63;;;2.80;;
1679;SDS011;838;51.794;12.258;2024-01-15T09:51:50;3.90;;;2.60;;
1679;SDS011;838;51.794;12.258;2024-01-15T09:54:16;5.90;;;3.33;;
1679;SDS011;838;51.794;12.258;2024-01-15T09:56:45;4.97;;;2.73;;
1679;SDS011;838;51.794;12.258;2024-01-15T09:59:13;4.40;;;2.53;;
1679;SDS011;838;51.794;12.258;2024-01-15T10:01:41;6.53;;;3.73;;
1679;SDS011;838;51.794;12.258;2024-01-15T10:04:09;5.73;;;3.60;;
1679;SDS011;838;51.794;12.258;2024-01-15T10:06:38;18.57;;;9.07;;
1679;SDS011;838;51.794;12.258;2024-01-15T10:09:07;151.77;;;51.23;;
1679;SDS011;838;51.794;12.258;2024-01-15T10:11:33;48.43;;;18.03;;
1679;SDS011;838;51.794;12.258;2024-01-15T10:13:58;70.10;;;32.80;;
1679;SDS011;838;51.794;12.258;2024-01-15T10:16:25;6.93;;;4.40;;
1679;SDS011;838;51.794;12.258;2024-01-15T10:18:51;8.90;;;4.20;;
1679;SDS011;838;51.794;12.258;2024-01-15T10:21:16;5.03;;;2.07;;
1679;SDS011;838;51.794;12.258;2024-01-15T10:23:42;4.80;;;2.40;;
1679;SDS011;838;51.794;12.258;2024-01-15T10:26:09;3.90;;;2.27;;
1679;SDS011;838;51.794;12.258;2024-01-15T10:28:37;3.87;;;2.17;;
1679;SDS011;838;51.794;12.258;2024-01-15T10:31:02;3.17;;;2.07;;
1679;SDS011;838;51.794;12.258;2024-01-15T10:33:29;3.93;;;1.97;;
1679;SDS011;838;51.794;12.258;2024-01-15T10:35:56;4.67;;;2.10;;
1679;SDS011;838;51.794;12.258;2024-01-15T10:38:23;3.73;;;1.60;;
1679;SDS011;838;51.794;12.258;2024-01-15T10:40:53;3.90;;;2.30;;
1679;SDS011;838;51.794;12.258;2024-01-15T10:43:20;4.40;;;2.30;;
1679;SDS011;838;51.794;12.258;2024-01-15T10:45:46;4.70;;;2.47;;
1679;SDS011;838;51.794;12.258;2024-01-15T10:48:13;4.60;;;2.20;;
1679;SDS011;838;51.794;12.258;2024-01-15T10:50:41;4.33;;;2.20;;
1679;SDS011;838;51.794;12.258;2024-01-15T10:53:07;5.63;;;2.63;;
1679;SDS011;838;51.794;12.258;2024-01-15T10:55:35;3.67;;;2.03;;
1679;SDS011;838;51.794;12.258;2024-01-15T10:58:02;3.77;;;2.07;;
1679;SDS011;838;51.794;12.258;2024-01-15T11:00:29;5.20;;;2.20;;
1679;SDS011;838;51.794;12.258;2024-01-15T11:02:55;4.63;;;2.30;;
1679;SDS011;838;51.794;12.258;2024-01-15T11:05:21;4.07;;;2.47;;
1679;SDS011;838;51.794;12.258;2024-01-15T11:07:50;4.40;;;2.10;;
1679;SDS011;838;51.794;12.258;2024-01-15T11:13:05;3.47;;;2.43;;
1679;SDS011;838;51.794;12.258;2024-01-15T11:16:00;4.60;;;3.80;;
1679;SDS011;838;51.794;12.258;2024-01-15T11:18:31;5.23;;;4.10;;
1679;SDS011;838;51.794;12.258;2024-01-15T11:23:45;4.57;;;3.10;;
1679;SDS011;838;51.794;12.258;2024-01-15T11:29:29;6.73;;;3.13;;
1679;SDS011;838;51.794;12.258;2024-01-15T11:32:09;5.10;;;3.50;;
1679;SDS011;838;51.794;12.258;2024-01-15T11:37:24;4.53;;;2.10;;
1679;SDS011;838;51.794;12.258;2024-01-15T11:39:52;6.20;;;3.70;;
1679;SDS011;838;51.794;12.258;2024-01-15T11:42:19;4.73;;;2.83;;
1679;SDS011;838;51.794;12.258;2024-01-15T11:44:46;3.90;;;2.33;;
1679;SDS011;838;51.794;12.258;2024-01-15T11:47:12;4.50;;;3.40;;
1679;SDS011;838;51.794;12.258;2024-01-15T11:52:11;4.17;;;2.67;;
1679;SDS011;838;51.794;12.258;2024-01-15T11:54:40;3.40;;;2.03;;
1679;SDS011;838;51.794;12.258;2024-01-15T11:57:16;3.47;;;2.33;;
1679;SDS011;838;51.794;12.258;2024-01-15T11:59:50;5.30;;;2.27;;
1679;SDS011;838;51.794;12.258;2024-01-15T12:02:16;5.07;;;2.50;;
1679;SDS011;838;51.794;12.258;2024-01-15T12:04:42;5.67;;;1.83;;
1679;SDS011;838;51.794;12.258;2024-01-15T12:07:08;4.53;;;1.97;;
1679;SDS011;838;51.794;12.258;2024-01-15T12:09:33;3.60;;;2.20;;
1679;SDS011;838;51.794;12.258;2024-01-15T12:12:02;3.20;;;1.93;;
1679;SDS011;838;51.794;12.258;2024-01-15T12:14:37;5.13;;;2.17;;
1679;SDS011;838;51.794;12.258;2024-01-15T12:17:03;4.77;;;2.20;;
1679;SDS011;838;51.794;12.258;2024-01-15T12:19:29;7.17;;;2.27;;
1679;SDS011;838;51.794;12.258;2024-01-15T12:21:55;4.20;;;1.70;;
1679;SDS011;838;51.794;12.258;2024-01-15T12:24:21;4.73;;;2.10;;
1679;SDS011;838;51.794;12.258;2024-01-15T12:26:47;3.70;;;1.60;;
1679;SDS011;838;51.794;12.258;2024-01-15T12:29:13;4.63;;;2.20;;
1679;SDS011;838;51.794;12.258;2024-01-15T12:31:38;9.83;;;2.03;;
1679;SDS011;838;51.794;12.258;2024-01-15T12:34:04;4.20;;;1.50;;
1679;SDS011;838;51.794;12.258;2024-01-15T12:36:31;4.50;;;1.97;;
1679;SDS011;838;51.794;12.258;2024-01-15T12:39:00;8.20;;;2.03;;
1679;SDS011;838;51.794;12.258;2024-01-15T12:41:25;4.40;;;1.60;;
1679;SDS011;838;51.794;12.258;2024-01-15T12:43:51;5.73;;;1.70;;
1679;SDS011;838;51.794;12.258;2024-01-15T12:46:17;8.20;;;2.20;;
1679;SDS011;838;51.794;12.258;2024-01-15T12:48:44;8.03;;;2.37;;
1679;SDS011;838;51.794;12.258;2024-01-15T12:51:09;6.87;;;1.70;;
1679;SDS011;838;51.794;12.258;2024-01-15T12:53:35;5.33;;;1.90;;
1679;SDS011;838;51.794;12.258;2024-01-15T12:56:01;4.10;;;1.60;;
1679;SDS011;838;51.794;12.258;2024-01-15T12:58:27;6.73;;;1.97;;
1679;SDS011;838;51.794;12.258;2024-01-15T13:00:54;6.07;;;1.70;;
1679;SDS011;838;51.794;12.258;2024-01-15T13:03:21;5.20;;;2.20;;
1679;SDS011;838;51.794;12.258;2024-01-15T13:05:47;7.13;;;1.63;;
1679;SDS011;838;51.794;12.258;2024-01-15T13:08:14;4.13;;;1.70;;
1679;SDS011;838;51.794;12.258;2024-01-15T13:10:39;3.47;;;1.60;;
1679;SDS011;838;51.794;12.258;2024-01-15T13:13:07;5.00;;;2.00;;
1679;SDS011;838;51.794;12.258;2024-01-15T13:15:33;4.97;;;1.70;;
1679;SDS011;838;51.794;12.258;2024-01-15T13:17:58;3.57;;;1.80;;
1679;SDS011;838;51.794;12.258;2024-01-15T13:20:24;4.10;;;1.70;;
1679;SDS011;838;51.794;12.258;2024-01-15T13:22:50;8.60;;;2.20;;
1679;SDS011;838;51.794;12.258;2024-01-15T13:25:15;2.63;;;1.40;;
1679;SDS011;838;51.794;12.258;2024-01-15T13:27:41;6.80;;;3.07;;
1679;SDS011;838;51.794;12.258;2024-01-15T13:30:07;36.93;;;17.70;;
1679;SDS011;838;51.794;12.258;2024-01-15T13:32:33;48.50;;;26.10;;
1679;SDS011;838;51.794;12.258;2024-01-15T13:34:59;6.77;;;4.50;;
1679;SDS011;838;51.794;12.258;2024-01-15T13:37:25;5.70;;;2.43;;
1679;SDS011;838;51.794;12.258;2024-01-15T13:39:51;4.83;;;1.63;;
1679;SDS011;838;51.794;12.258;2024-01-15T13:42:17;3.70;;;2.17;;
1679;SDS011;838;51.794;12.258;2024-01-15T13:44:43;4.10;;;1.80;;
1679;SDS011;838;51.794;12.258;2024-01-15T13:47:09;4.77;;;1.63;;
1679;SDS011;838;51.794;12.258;2024-01-15T13:49:35;3.00;;;1.77;;
1679;SDS011;838;51.794;12.258;2024-01-15T13:52:01;4.30;;;1.63;;
1679;SDS011;838;51.794;12.258;2024-01-15T13:54:29;6.20;;;4.13;;
1679;SDS011;838;51.794;12.258;2024-01-15T13:56:55;25.50;;;12.40;;
1679;SDS011;838;51.794;12.258;2024-01-15T13:59:21;12.73;;;6.93;;
1679;SDS011;838;51.794;12.258;2024-01-15T14:01:48;17.83;;;8.60;;
1679;SDS011;838;51.794;12.258;2024-01-15T14:04:13;11.30;;;6.43;;
1679;SDS011;838;51.794;12.258;2024-01-15T14:06:39;17.80;;;10.43;;
1679;SDS011;838;51.794;12.258;2024-01-15T14:09:05;5.07;;;2.47;;
1679;SDS011;838;51.794;12.258;2024-01-15T14:11:30;3.70;;;2.60;;
1679;SDS011;838;51.794;12.258;2024-01-15T14:13:56;6.87;;;2.97;;
1679;SDS011;838;51.794;12.258;2024-01-15T14:16:22;4.70;;;2.10;;
1679;SDS011;838;51.794;12.258;2024-01-15T14:18:48;7.07;;;2.63;;
1679;SDS011;838;51.794;12.258;2024-01-15T14:21:13;4.13;;;1.90;;
1679;SDS011;838;51.794;12.258;2024-01-15T14:23:40;7.57;;;3.00;;
1679;SDS011;838;51.794;12.258;2024-01-15T14:26:05;7.03;;;2.83;;
1679;SDS011;838;51.794;12.258;2024-01-15T14:28:31;4.17;;;2.73;;
1679;SDS011;838;51.794;12.258;2024-01-15T14:30:57;4.20;;;1.80;;
1679;SDS011;838;51.794;12.258;2024-01-15T14:33:26;5.20;;;2.03;;
1679;SDS011;838;51.794;12.258;2024-01-15T14:35:52;4.73;;;1.40;;
1679;SDS011;838;51.794;12.258;2024-01-15T14:38:18;3.10;;;1.50;;
1679;SDS011;838;51.794;12.258;2024-01-15T14:40:43;3.57;;;1.90;;
1679;SDS011;838;51.794;12.258;2024-01-15T14:43:09;5.47;;;1.80;;
1679;SDS011;838;51.794;12.258;2024-01-15T14:45:35;4.40;;;2.00;;
1679;SDS011;838;51.794;12.258;2024-01-15T14:48:01;4.93;;;2.07;;
1679;SDS011;838;51.794;12.258;2024-01-15T14:50:27;6.67;;;1.57;;
1679;SDS011;838;51.794;12.258;2024-01-15T14:52:53;7.67;;;1.73;;
1679;SDS011;838;51.794;12.258;2024-01-15T14:55:19;3.70;;;1.80;;
1679;SDS011;838;51.794;12.258;2024-01-15T14:57:44;4.30;;;2.10;;
1679;SDS011;838;51.794;12.258;2024-01-15T15:00:10;2.90;;;1.70;;
1679;SDS011;838;51.794;12.258;2024-01-15T15:02:38;5.80;;;1.60;;
1679;SDS011;838;51.794;12.258;2024-01-15T15:05:04;3.20;;;1.93;;
1679;SDS011;838;51.794;12.258;2024-01-15T15:07:30;7.97;;;2.27;;
1679;SDS011;838;51.794;12.258;2024-01-15T15:09:56;3.50;;;2.00;;
1679;SDS011;838;51.794;12.258;2024-01-15T15:12:22;4.60;;;2.07;;
1679;SDS011;838;51.794;12.258;2024-01-15T15:14:48;3.77;;;1.57;;
1679;SDS011;838;51.794;12.258;2024-01-15T15:17:14;4.73;;;1.63;;